Time;durP1;ratioP1;P1;durP2;ratioP2;P2;SDS_P1;SDS_P2;PMS_P1;PMS_P2;Temp;Humidity;BMP_temperature;BMP_pressure;BME280_temperature;BME280_humidity;BME280_pressure;Samples;Min_cycle;Max_cycle;Signal;HPM_P1;HPM_P2
2023/05/06 00:01:32;;;;;;;45.42;20.30;;;11.90;99.90;;;;;;5068053;28;20071;-55
2023/05/06 00:03:58;;;;;;;51.40;22.15;;;11.90;99.90;;;;;;5070879;28;20476;-56
2023/05/06 00:06:23;;;;;;;48.13;20.73;;;11.80;99.90;;;;;;5069980;28;20029;-54
2023/05/06 00:08:49;;;;;;;60.85;22.75;;;11.80;99.90;;;;;;5066216;28;20038;-59
2023/05/06 00:11:15;;;;;;;52.55;21.65;;;11.80;99.90;;;;;;5068892;28;20036;-52
2023/05/06 00:13:41;;;;;;;51.97;20.50;;;11.80;99.90;;;;;;5067512;28;20041;-52
2023/05/06 00:16:06;;;;;;;46.75;19.02;;;11.80;99.90;;;;;;5069286;28;20056;-58
2023/05/06 00:18:32;;;;;;;52.13;20.80;;;11.80;99.90;;;;;;5070707;28;20028;-57
2023/05/06 00:20:57;;;;;;;46.50;20.77;;;11.80;99.90;;;;;;5068800;28;20021;-63
2023/05/06 00:23:23;;;;;;;53.10;21.58;;;11.80;99.90;;;;;;5067217;28;20032;-59
2023/05/06 00:25:49;;;;;;;48.70;21.80;;;11.80;99.90;;;;;;5071540;28;20037;-56
2023/05/06 00:28:14;;;;;;;50.35;19.83;;;11.80;99.90;;;;;;5069116;28;20125;-56
2023/05/06 00:30:40;;;;;;;55.53;21.08;;;11.80;99.90;;;;;;5071561;28;20081;-56
2023/05/06 00:33:05;;;;;;;55.13;20.88;;;11.70;99.90;;;;;;5069741;28;20196;-57
2023/05/06 00:35:31;;;;;;;60.33;22.30;;;11.70;99.90;;;;;;5071579;28;20044;-58
2023/05/06 00:38:04;;;;;;;58.70;21.08;;;11.70;99.90;;;;;;5068792;28;20063;-59
2023/05/06 00:40:30;;;;;;;69.88;21.98;;;11.60;99.90;;;;;;5067142;28;20078;-58
2023/05/06 00:42:56;;;;;;;59.05;23.20;;;11.70;99.90;;;;;;5071971;28;20041;-56
2023/05/06 00:45:22;;;;;;;57.15;22.98;;;11.60;99.90;;;;;;5069645;28;20044;-51
2023/05/06 00:47:47;;;;;;;59.28;22.52;;;11.60;99.90;;;;;;5069005;28;20024;-55
2023/05/06 00:50:13;;;;;;;59.95;22.40;;;11.50;99.90;;;;;;5073852;28;20484;-54
2023/05/06 00:52:39;;;;;;;53.75;21.10;;;11.50;99.90;;;;;;5077021;28;20024;-65
2023/05/06 00:55:05;;;;;;;55.75;21.02;;;11.50;99.90;;;;;;5072900;28;20032;-58
2023/05/06 00:57:31;;;;;;;58.75;22.85;;;11.50;99.90;;;;;;5074592;28;20743;-54
2023/05/06 00:59:56;;;;;;;67.35;25.42;;;11.40;99.90;;;;;;5076321;28;20103;-58
2023/05/06 01:02:22;;;;;;;57.58;24.48;;;11.40;99.90;;;;;;5069599;28;20504;-57
2023/05/06 01:04:47;;;;;;;52.40;22.33;;;11.40;99.90;;;;;;5072979;28;20036;-62
2023/05/06 01:07:30;;;;;;;71.43;25.27;;;11.40;99.90;;;;;;5063772;28;20115;-55
2023/05/06 01:10:25;;;;;;;62.72;24.02;;;11.40;99.90;;;;;;5072375;28;20040;-55
2023/05/06 01:13:29;;;;;;;69.30;25.20;;;11.30;99.90;;;;;;5015095;28;20045;-57
2023/05/06 01:15:58;;;;;;;67.78;23.83;;;11.30;99.90;;;;;;5069490;28;20040;-55
2023/05/06 01:18:25;;;;;;;66.72;22.85;;;11.20;99.90;;;;;;5073540;28;20094;-54
2023/05/06 01:20:53;;;;;;;75.93;22.67;;;11.20;99.90;;;;;;5071111;28;20043;-56
2023/05/06 01:23:19;;;;;;;59.03;22.35;;;11.10;99.90;;;;;;5070571;28;20036;-56
2023/05/06 01:25:44;;;;;;;53.65;21.10;;;11.10;99.90;;;;;;5074343;28;20036;-55
2023/05/06 01:28:11;;;;;;;59.00;20.77;;;11.10;99.90;;;;;;5073679;28;20029;-56
2023/05/06 01:30:51;;;;;;;49.13;18.73;;;11.00;99.90;;;;;;5076666;28;20527;-61
2023/05/06 01:33:28;;;;;;;38.45;18.20;;;11.00;99.90;;;;;;5077147;28;20028;-56
2023/05/06 01:36:17;;;;;;;38.97;16.95;;;11.00;99.90;;;;;;5072920;28;20020;-58
2023/05/06 01:38:49;;;;;;;41.42;15.95;;;11.00;99.90;;;;;;5067774;28;20032;-58
2023/05/06 01:41:15;;;;;;;49.97;18.55;;;11.00;99.90;;;;;;5070918;28;20020;-57
2023/05/06 01:43:43;;;;;;;46.38;18.48;;;10.90;99.90;;;;;;5074606;28;20037;-59
2023/05/06 01:46:18;;;;;;;48.75;18.40;;;10.90;99.90;;;;;;5071384;28;20408;-53
2023/05/06 01:48:50;;;;;;;45.53;19.63;;;10.90;99.90;;;;;;5074558;28;20025;-60
2023/05/06 01:51:16;;;;;;;49.95;18.30;;;10.90;99.90;;;;;;5074045;28;20035;-56
2023/05/06 01:53:41;;;;;;;54.97;21.60;;;10.90;99.90;;;;;;5077424;28;20036;-57
2023/05/06 01:56:07;;;;;;;49.38;19.55;;;10.90;99.90;;;;;;5080343;28;20029;-58
2023/05/06 01:58:32;;;;;;;52.17;19.67;;;10.80;99.90;;;;;;5071233;28;20039;-59
2023/05/06 02:00:58;;;;;;;41.53;18.33;;;10.90;99.90;;;;;;5072569;28;20025;-55
2023/05/06 02:03:23;;;;;;;45.80;16.63;;;10.80;99.90;;;;;;5071773;28;20032;-60
2023/05/06 02:05:49;;;;;;;41.35;18.08;;;10.80;99.90;;;;;;5070520;28;20045;-62
2023/05/06 02:08:15;;;;;;;50.10;21.33;;;10.70;99.90;;;;;;5069537;28;20790;-57
2023/05/06 02:10:40;;;;;;;52.17;17.25;;;10.70;99.90;;;;;;5072220;28;20031;-56
2023/05/06 02:13:06;;;;;;;40.58;16.95;;;10.70;99.90;;;;;;5070756;28;20029;-59
2023/05/06 02:15:32;;;;;;;46.28;17.80;;;10.60;99.90;;;;;;5072789;28;20028;-61
2023/05/06 02:17:58;;;;;;;48.25;18.15;;;10.60;99.90;;;;;;5074378;28;20485;-57
2023/05/06 02:20:24;;;;;;;47.72;17.88;;;10.70;99.90;;;;;;5067521;28;20028;-60
2023/05/06 02:22:49;;;;;;;54.13;20.33;;;10.70;99.90;;;;;;5072542;28;20025;-59
2023/05/06 02:25:15;;;;;;;50.10;18.75;;;10.70;99.90;;;;;;5073482;28;20040;-59
2023/05/06 02:27:41;;;;;;;51.10;20.00;;;10.70;99.90;;;;;;5070961;28;20041;-60
2023/05/06 02:30:07;;;;;;;50.60;19.77;;;10.80;99.90;;;;;;5071047;28;20037;-59
2023/05/06 02:32:32;;;;;;;58.08;19.55;;;10.80;99.90;;;;;;5071671;28;20549;-58
2023/05/06 02:34:58;;;;;;;57.13;19.92;;;10.80;99.90;;;;;;5071466;28;20123;-52
2023/05/06 02:37:23;;;;;;;47.03;17.17;;;10.80;99.90;;;;;;5071198;28;20159;-56
2023/05/06 02:39:49;;;;;;;53.03;19.88;;;10.80;99.90;;;;;;5072672;28;20024;-58
2023/05/06 02:42:15;;;;;;;57.15;18.92;;;10.80;99.90;;;;;;5074378;28;20103;-56
2023/05/06 02:44:41;;;;;;;55.80;20.58;;;10.80;99.90;;;;;;5069891;28;20122;-54
2023/05/06 02:47:06;;;;;;;66.60;21.30;;;10.80;99.90;;;;;;5076601;28;20024;-55
2023/05/06 02:49:32;;;;;;;62.60;20.60;;;10.80;99.90;;;;;;5068690;28;20032;-58
2023/05/06 02:51:57;;;;;;;66.18;22.35;;;10.90;99.90;;;;;;5070711;28;20025;-58
2023/05/06 02:54:23;;;;;;;56.80;20.20;;;10.90;99.90;;;;;;5073780;28;20032;-56
2023/05/06 02:56:48;;;;;;;59.70;21.88;;;10.90;99.90;;;;;;5070547;28;20066;-58
2023/05/06 02:59:14;;;;;;;83.13;24.70;;;10.90;99.90;;;;;;5069981;28;20021;-56
2023/05/06 03:01:39;;;;;;;68.20;22.40;;;10.90;99.90;;;;;;5068189;28;20999;-58
2023/05/06 03:04:05;;;;;;;64.10;22.70;;;10.90;99.90;;;;;;5071558;28;20028;-67
2023/05/06 03:06:31;;;;;;;55.08;22.75;;;11.00;99.90;;;;;;5067240;28;20105;-59
2023/05/06 03:08:57;;;;;;;71.63;22.63;;;11.00;99.90;;;;;;5072201;28;20495;-60
2023/05/06 03:11:22;;;;;;;53.17;20.92;;;11.00;99.90;;;;;;5070449;28;20032;-54
2023/05/06 03:13:48;;;;;;;59.40;22.05;;;11.00;99.90;;;;;;5068612;28;20526;-62
2023/05/06 03:16:13;;;;;;;49.47;20.58;;;11.00;99.90;;;;;;5073970;28;20408;-60
2023/05/06 03:18:39;;;;;;;44.45;18.92;;;11.00;99.90;;;;;;5068647;28;20028;-55
2023/05/06 03:21:05;;;;;;;51.20;20.55;;;11.00;99.90;;;;;;5069597;28;20059;-54
2023/05/06 03:23:30;;;;;;;49.55;20.58;;;11.10;99.90;;;;;;5072629;28;20032;-58
2023/05/06 03:25:56;;;;;;;44.50;20.40;;;11.10;99.90;;;;;;5070041;28;20021;-57
2023/05/06 03:28:22;;;;;;;41.78;18.88;;;11.10;99.90;;;;;;5068632;28;20093;-62
2023/05/06 03:30:47;;;;;;;36.35;18.15;;;11.10;99.90;;;;;;5069749;28;20055;-55
2023/05/06 03:33:13;;;;;;;42.78;18.70;;;11.10;99.90;;;;;;5070971;28;20028;-57
2023/05/06 03:35:38;;;;;;;45.72;20.15;;;11.10;99.90;;;;;;5071334;28;20099;-61
2023/05/06 03:38:05;;;;;;;38.22;17.10;;;11.10;99.90;;;;;;5069503;28;20513;-56
2023/05/06 03:40:31;;;;;;;47.58;19.38;;;11.10;99.90;;;;;;5070135;28;20020;-61
2023/05/06 03:42:56;;;;;;;36.88;19.58;;;11.10;99.90;;;;;;5066616;28;20028;-56
2023/05/06 03:45:22;;;;;;;45.15;21.65;;;11.10;99.90;;;;;;5066886;28;20033;-57
2023/05/06 03:47:47;;;;;;;38.97;19.10;;;11.10;99.90;;;;;;5066156;28;20040;-57
2023/05/06 03:50:13;;;;;;;48.40;18.98;;;11.10;99.90;;;;;;5069239;28;20035;-55
2023/05/06 03:52:39;;;;;;;48.33;17.73;;;11.10;99.90;;;;;;5072533;28;20039;-53
2023/05/06 03:55:05;;;;;;;38.85;18.65;;;11.00;99.90;;;;;;5069944;28;20020;-54
2023/05/06 03:57:30;;;;;;;41.20;18.33;;;11.00;99.90;;;;;;5072553;28;20055;-53
2023/05/06 03:59:56;;;;;;;37.50;18.83;;;11.00;99.90;;;;;;5067707;28;20056;-56
2023/05/06 04:02:21;;;;;;;39.45;17.67;;;10.90;99.90;;;;;;5066615;28;20111;-56
2023/05/06 04:04:47;;;;;;;46.03;19.27;;;10.90;99.90;;;;;;5068637;28;20956;-53
2023/05/06 04:07:12;;;;;;;45.67;18.80;;;10.90;99.90;;;;;;5070429;28;20036;-55
2023/05/06 04:09:38;;;;;;;52.60;19.13;;;10.90;99.90;;;;;;5074401;28;20071;-54
2023/05/06 04:12:04;;;;;;;48.65;18.48;;;11.00;99.90;;;;;;5068526;28;20507;-52
2023/05/06 04:14:30;;;;;;;61.92;20.20;;;11.00;99.90;;;;;;5070256;28;20029;-53
2023/05/06 04:16:55;;;;;;;54.80;19.20;;;11.10;99.90;;;;;;5068465;28;20033;-52
2023/05/06 04:19:22;;;;;;;48.03;18.60;;;11.10;99.90;;;;;;5072032;28;20027;-57
2023/05/06 04:21:47;;;;;;;43.53;18.73;;;11.10;99.90;;;;;;5069783;28;20103;-54
2023/05/06 04:24:14;;;;;;;31.95;17.30;;;11.10;99.90;;;;;;5069128;28;20100;-57
2023/05/06 04:26:40;;;;;;;54.35;20.88;;;11.10;99.90;;;;;;5070740;28;20017;-52
2023/05/06 04:29:06;;;;;;;70.82;22.13;;;11.20;99.90;;;;;;5071038;28;20119;-53
2023/05/06 04:31:33;;;;;;;57.28;19.15;;;11.20;99.90;;;;;;5067191;28;20116;-53
2023/05/06 04:33:59;;;;;;;68.60;23.52;;;11.20;99.90;;;;;;5063722;28;20070;-52
2023/05/06 04:36:25;;;;;;;55.28;19.75;;;11.30;99.90;;;;;;5061578;28;20513;-54
2023/05/06 04:38:52;;;;;;;37.00;18.27;;;11.30;99.90;;;;;;5067315;28;20107;-53
2023/05/06 04:41:18;;;;;;;45.97;19.83;;;11.30;99.90;;;;;;5069873;28;20044;-54
2023/05/06 04:43:43;;;;;;;74.60;21.75;;;11.40;99.90;;;;;;5073151;28;20056;-53
2023/05/06 04:46:09;;;;;;;54.58;20.40;;;11.40;99.90;;;;;;5069896;28;20474;-54
2023/05/06 04:48:35;;;;;;;51.53;20.00;;;11.30;99.90;;;;;;5068396;28;20495;-54
2023/05/06 04:51:03;;;;;;;43.25;17.80;;;11.40;99.90;;;;;;5069484;28;20511;-58
2023/05/06 04:53:28;;;;;;;40.40;19.65;;;11.40;99.90;;;;;;5071197;28;20031;-53
2023/05/06 04:55:54;;;;;;;39.78;17.40;;;11.40;99.90;;;;;;5062503;28;20024;-53
2023/05/06 04:58:20;;;;;;;44.53;18.65;;;11.50;99.90;;;;;;5071205;28;20044;-53
2023/05/06 05:00:45;;;;;;;35.67;18.45;;;11.50;99.90;;;;;;5064243;28;20063;-56
2023/05/06 05:03:11;;;;;;;29.55;16.80;;;11.50;99.90;;;;;;5065093;28;20021;-56
2023/05/06 05:05:36;;;;;;;32.13;17.33;;;11.50;99.90;;;;;;5070713;28;20484;-53
2023/05/06 05:08:02;;;;;;;37.92;18.95;;;11.60;99.90;;;;;;5069885;28;20032;-56
2023/05/06 05:10:28;;;;;;;54.13;18.25;;;11.60;99.90;;;;;;5072448;28;20051;-57
2023/05/06 05:12:53;;;;;;;36.28;17.65;;;11.60;99.90;;;;;;5068215;28;20073;-54
2023/05/06 05:15:20;;;;;;;30.92;16.10;;;11.50;99.90;;;;;;5066253;28;20032;-59
2023/05/06 05:17:45;;;;;;;39.22;18.10;;;11.60;99.90;;;;;;5069010;28;20549;-57
2023/05/06 05:20:11;;;;;;;33.33;17.02;;;11.60;99.90;;;;;;5069676;28;20021;-56
2023/05/06 05:22:36;;;;;;;49.13;19.67;;;11.60;99.90;;;;;;5070717;28;20035;-62
2023/05/06 05:25:03;;;;;;;29.88;16.35;;;11.70;99.90;;;;;;5068253;28;20680;-59
2023/05/06 05:27:28;;;;;;;35.67;17.70;;;11.70;99.90;;;;;;5068794;28;20024;-57
2023/05/06 05:29:55;;;;;;;54.63;22.05;;;11.70;99.90;;;;;;5065380;28;20040;-59
2023/05/06 05:32:21;;;;;;;34.42;17.27;;;11.80;99.90;;;;;;5069341;28;20033;-55
2023/05/06 05:34:46;;;;;;;48.15;20.20;;;11.80;99.90;;;;;;5073029;28;20055;-55
2023/05/06 05:37:12;;;;;;;36.08;18.45;;;11.80;99.90;;;;;;5073441;28;20103;-55
2023/05/06 05:39:38;;;;;;;36.72;18.67;;;11.90;99.90;;;;;;5073062;28;20051;-58
2023/05/06 05:42:03;;;;;;;35.78;18.63;;;11.90;99.90;;;;;;5072556;28;20032;-54
2023/05/06 05:44:29;;;;;;;45.58;18.67;;;12.00;99.90;;;;;;5069505;28;20066;-55
2023/05/06 05:46:54;;;;;;;49.35;19.00;;;12.00;99.90;;;;;;5071698;28;20407;-56
2023/05/06 05:49:20;;;;;;;45.45;18.88;;;11.90;99.90;;;;;;5072175;28;20483;-58
2023/05/06 05:51:46;;;;;;;43.40;16.98;;;11.90;99.90;;;;;;5077963;28;20036;-61
2023/05/06 05:54:11;;;;;;;42.10;18.05;;;11.90;99.90;;;;;;5073118;28;20028;-56
2023/05/06 05:56:37;;;;;;;52.10;18.02;;;12.00;99.90;;;;;;5070906;28;20024;-54
2023/05/06 05:59:02;;;;;;;34.20;17.42;;;12.00;99.90;;;;;;5073824;28;20031;-65
2023/05/06 06:01:28;;;;;;;31.13;16.63;;;12.00;99.90;;;;;;5063401;28;20017;-54
2023/05/06 06:03:54;;;;;;;35.72;16.98;;;12.10;99.90;;;;;;5069709;28;20025;-58
2023/05/06 06:06:20;;;;;;;38.75;18.58;;;12.30;99.90;;;;;;5071934;28;20024;-57
2023/05/06 06:08:46;;;;;;;38.40;18.73;;;12.30;99.90;;;;;;5070670;28;20054;-61
2023/05/06 06:11:11;;;;;;;41.80;20.83;;;12.40;99.90;;;;;;5067679;28;20054;-55
2023/05/06 06:13:37;;;;;;;43.00;19.08;;;12.50;99.90;;;;;;5069066;28;20104;-57
2023/05/06 06:16:03;;;;;;;39.22;18.58;;;12.50;99.90;;;;;;5070879;28;20031;-62
2023/05/06 06:18:29;;;;;;;44.55;21.02;;;12.50;99.90;;;;;;5071067;28;20028;-54
2023/05/06 06:20:55;;;;;;;53.22;23.02;;;12.50;99.90;;;;;;5069996;28;20013;-60
2023/05/06 06:23:21;;;;;;;45.13;22.00;;;12.50;99.90;;;;;;5069881;28;20027;-62
2023/05/06 06:25:46;;;;;;;49.50;22.85;;;12.50;99.90;;;;;;5069971;28;20045;-64
2023/05/06 06:28:12;;;;;;;45.53;22.23;;;12.60;99.90;;;;;;5068339;28;20105;-57
2023/05/06 06:30:37;;;;;;;49.53;24.50;;;12.70;99.90;;;;;;5069713;28;20027;-56
2023/05/06 06:33:03;;;;;;;45.63;22.42;;;12.70;99.90;;;;;;5070765;28;20033;-62
2023/05/06 06:35:28;;;;;;;44.80;21.38;;;12.50;99.90;;;;;;5067449;28;20028;-58
2023/05/06 06:37:54;;;;;;;48.58;23.65;;;12.50;99.90;;;;;;5071850;28;20035;-56
2023/05/06 06:40:21;;;;;;;49.90;24.52;;;12.50;99.90;;;;;;5070524;28;20043;-54
2023/05/06 06:42:47;;;;;;;44.30;22.75;;;12.50;99.90;;;;;;5068511;28;20121;-57
2023/05/06 06:45:13;;;;;;;45.65;22.27;;;12.50;99.90;;;;;;5069714;28;20506;-61
2023/05/06 06:47:39;;;;;;;51.65;23.23;;;12.60;99.90;;;;;;5068425;28;20035;-60
2023/05/06 06:50:06;;;;;;;40.83;20.50;;;12.60;99.90;;;;;;5067696;28;20515;-59
2023/05/06 06:52:32;;;;;;;47.72;21.55;;;12.70;99.90;;;;;;5070750;28;20038;-61
2023/05/06 06:54:58;;;;;;;41.05;20.70;;;12.70;99.90;;;;;;5072817;28;20408;-58
2023/05/06 06:57:23;;;;;;;41.60;20.65;;;12.70;99.90;;;;;;5071607;28;20033;-55
2023/05/06 06:59:51;;;;;;;36.88;20.25;;;12.80;99.90;;;;;;5069354;28;20020;-58
2023/05/06 07:02:16;;;;;;;35.22;18.73;;;12.90;99.90;;;;;;5068577;28;20016;-65
2023/05/06 07:04:42;;;;;;;38.13;19.52;;;12.90;99.90;;;;;;5069997;28;20032;-54
2023/05/06 07:07:07;;;;;;;48.17;20.90;;;13.00;99.90;;;;;;5070305;28;20079;-57
2023/05/06 07:09:33;;;;;;;47.85;24.10;;;13.10;99.90;;;;;;5064592;28;20095;-59
2023/05/06 07:12:00;;;;;;;49.67;22.98;;;13.10;99.90;;;;;;5060857;28;20658;-58
2023/05/06 07:14:26;;;;;;;38.38;19.80;;;13.10;99.90;;;;;;5061024;28;20029;-57
2023/05/06 07:16:51;;;;;;;41.33;19.85;;;13.20;99.90;;;;;;5064536;28;20395;-61
2023/05/06 07:19:17;;;;;;;36.90;19.27;;;13.30;99.90;;;;;;5067152;28;20048;-57
2023/05/06 07:21:42;;;;;;;34.30;18.23;;;13.40;99.90;;;;;;5070011;28;20028;-57
2023/05/06 07:24:08;;;;;;;36.03;18.73;;;13.40;99.90;;;;;;5070329;28;20024;-59
2023/05/06 07:26:37;;;;;;;36.30;19.30;;;13.40;99.90;;;;;;5068492;28;20441;-63
2023/05/06 07:29:03;;;;;;;39.10;18.83;;;13.50;99.90;;;;;;5071817;28;20564;-61
2023/05/06 07:31:30;;;;;;;34.10;19.48;;;13.60;99.90;;;;;;5067265;28;20021;-61
2023/05/06 07:33:57;;;;;;;37.20;18.20;;;13.60;99.90;;;;;;5069059;28;20032;-56
2023/05/06 07:36:23;;;;;;;33.25;18.65;;;13.70;99.90;;;;;;5066108;28;20511;-61
2023/05/06 07:38:48;;;;;;;36.78;18.10;;;13.70;99.90;;;;;;5065693;28;20032;-62
2023/05/06 07:41:15;;;;;;;30.30;17.98;;;13.80;99.90;;;;;;5072778;28;20100;-54
2023/05/06 07:43:40;;;;;;;34.45;17.30;;;13.80;99.90;;;;;;5069284;28;20027;-59
2023/05/06 07:46:06;;;;;;;25.80;14.50;;;13.90;99.90;;;;;;5061261;28;20040;-63
2023/05/06 07:48:32;;;;;;;27.13;14.27;;;13.90;99.90;;;;;;5067842;28;20021;-62
2023/05/06 07:50:58;;;;;;;26.95;14.35;;;14.00;99.90;;;;;;5066295;28;20553;-60
2023/05/06 07:53:24;;;;;;;22.52;12.75;;;14.00;99.90;;;;;;5066046;28;20024;-54
2023/05/06 07:55:51;;;;;;;22.45;12.77;;;14.10;99.90;;;;;;5068319;28;20025;-54
2023/05/06 07:58:17;;;;;;;25.13;12.70;;;14.10;99.90;;;;;;5071261;28;20147;-54
2023/05/06 08:00:43;;;;;;;21.63;11.05;;;14.10;99.90;;;;;;5064861;28;20557;-61
2023/05/06 08:03:08;;;;;;;22.13;10.95;;;14.10;99.90;;;;;;5067894;28;20040;-58
2023/05/06 08:05:34;;;;;;;18.13;8.07;;;14.30;99.90;;;;;;5066121;28;20039;-58
2023/05/06 08:07:59;;;;;;;13.85;7.25;;;14.30;99.90;;;;;;5066853;28;20035;-60
2023/05/06 08:10:25;;;;;;;9.98;7.10;;;14.30;99.90;;;;;;5068167;28;21593;-59
2023/05/06 08:12:51;;;;;;;14.80;7.22;;;14.40;99.90;;;;;;5064243;28;20064;-61
2023/05/06 08:15:16;;;;;;;10.77;4.72;;;14.40;99.90;;;;;;5069749;28;20021;-63
2023/05/06 08:17:42;;;;;;;6.47;4.20;;;14.40;99.90;;;;;;5072088;28;20041;-57
2023/05/06 08:20:08;;;;;;;15.52;5.43;;;14.50;99.90;;;;;;5068179;28;20425;-57
2023/05/06 08:22:33;;;;;;;7.18;4.60;;;14.50;99.90;;;;;;5067911;28;20111;-59
2023/05/06 08:24:59;;;;;;;8.25;4.68;;;14.70;99.90;;;;;;5065196;28;20551;-56
2023/05/06 08:27:25;;;;;;;11.15;4.85;;;14.70;99.90;;;;;;5065804;28;20549;-58
2023/05/06 08:29:51;;;;;;;5.97;4.45;;;14.80;99.90;;;;;;5068209;28;20032;-58
2023/05/06 08:32:16;;;;;;;7.43;4.00;;;14.90;99.90;;;;;;5065904;28;20067;-66
2023/05/06 08:34:42;;;;;;;5.75;3.85;;;15.00;99.90;;;;;;5069235;28;20075;-67
2023/05/06 08:37:07;;;;;;;4.78;3.05;;;15.00;99.90;;;;;;5070415;28;20028;-59
2023/05/06 08:39:33;;;;;;;7.90;4.50;;;15.10;99.90;;;;;;5070793;28;20029;-57
2023/05/06 08:42:03;;;;;;;12.30;4.00;;;15.30;99.90;;;;;;5067142;28;20025;-57
2023/05/06 08:44:29;;;;;;;8.70;4.35;;;15.40;99.90;;;;;;5062835;28;20025;-58
2023/05/06 08:46:55;;;;;;;9.90;4.03;;;15.50;99.90;;;;;;5067381;28;20542;-57
2023/05/06 08:49:20;;;;;;;6.28;3.95;;;15.70;99.90;;;;;;5060361;28;20021;-57
2023/05/06 08:51:49;;;;;;;8.75;3.33;;;15.80;99.90;;;;;;5066318;28;20021;-58
2023/05/06 08:54:16;;;;;;;6.93;3.30;;;15.90;99.90;;;;;;5067585;28;20033;-61
2023/05/06 08:56:50;;;;;;;5.53;3.33;;;16.10;99.90;;;;;;5068296;28;20029;-58
2023/05/06 08:59:22;;;;;;;5.07;2.80;;;16.10;99.90;;;;;;5068171;28;20023;-59
2023/05/06 09:01:48;;;;;;;5.55;2.97;;;16.20;99.90;;;;;;5066109;28;20103;-58
2023/05/06 09:04:15;;;;;;;8.25;3.22;;;16.30;99.90;;;;;;5072261;28;20133;-61
2023/05/06 09:06:41;;;;;;;5.93;3.17;;;16.50;99.90;;;;;;5074331;28;20029;-55
2023/05/06 09:09:06;;;;;;;8.18;3.67;;;16.50;99.90;;;;;;5075690;28;20016;-56
2023/05/06 09:11:32;;;;;;;5.82;3.42;;;16.70;99.90;;;;;;5074874;28;20085;-59
2023/05/06 09:14:08;;;;;;;5.43;3.42;;;16.80;99.90;;;;;;5073485;28;20025;-61
2023/05/06 09:16:34;;;;;;;6.70;3.05;;;16.90;99.90;;;;;;5071301;28;20470;-61
2023/05/06 09:19:00;;;;;;;9.48;4.43;;;17.00;99.90;;;;;;5070049;28;20108;-58
2023/05/06 09:21:32;;;;;;;8.75;4.13;;;17.00;99.90;;;;;;5071727;28;20021;-59
2023/05/06 09:23:58;;;;;;;7.97;3.22;;;17.20;99.90;;;;;;5071948;28;20028;-59
2023/05/06 09:26:26;;;;;;;11.10;3.55;;;17.30;99.90;;;;;;5073145;28;20027;-63
2023/05/06 09:28:52;;;;;;;4.68;2.92;;;17.30;99.90;;;;;;5071783;28;20075;-61
2023/05/06 09:31:17;;;;;;;3.08;2.42;;;17.40;99.90;;;;;;5072975;28;20631;-58
2023/05/06 09:33:43;;;;;;;6.75;2.88;;;17.50;99.90;;;;;;5074485;28;20036;-59
2023/05/06 09:36:12;;;;;;;6.80;3.38;;;17.60;99.90;;;;;;5062555;28;20146;-54
2023/05/06 09:38:40;;;;;;;6.75;2.55;;;17.80;99.90;;;;;;5068347;28;20037;-64
2023/05/06 09:41:06;;;;;;;4.28;1.88;;;18.00;99.90;;;;;;5066473;28;20028;-62
2023/05/06 09:43:32;;;;;;;6.65;2.13;;;18.10;99.90;;;;;;5070286;28;20033;-61
2023/05/06 09:46:00;;;;;;;5.38;1.95;;;18.20;99.90;;;;;;5056152;28;20028;-63
2023/05/06 09:48:30;;;;;;;3.65;1.75;;;18.30;99.90;;;;;;5068272;28;20116;-59
2023/05/06 09:50:56;;;;;;;7.10;1.88;;;18.40;99.90;;;;;;5067513;28;20396;-58
2023/05/06 09:53:22;;;;;;;5.93;2.03;;;18.50;99.90;;;;;;5068950;28;20031;-59
2023/05/06 09:55:49;;;;;;;5.00;2.50;;;18.70;99.90;;;;;;5067776;28;20107;-60
2023/05/06 09:58:19;;;;;;;4.03;2.65;;;19.00;99.90;;;;;;5072774;28;20028;-61
2023/05/06 10:00:45;;;;;;;3.58;2.05;;;19.20;99.90;;;;;;5064755;28;20397;-62
2023/05/06 10:03:13;;;;;;;3.55;2.40;;;19.30;99.90;;;;;;5070694;28;20598;-62
2023/05/06 10:05:39;;;;;;;2.85;1.80;;;19.40;99.90;;;;;;5070631;28;20037;-58
2023/05/06 10:08:08;;;;;;;5.47;2.28;;;19.40;99.90;;;;;;5069780;28;20048;-60
2023/05/06 10:10:34;;;;;;;5.10;1.80;;;19.50;99.90;;;;;;5069393;28;20036;-63
2023/05/06 10:13:03;;;;;;;3.42;2.08;;;19.60;99.90;;;;;;5069426;28;20032;-59
2023/05/06 10:15:31;;;;;;;7.70;1.83;;;19.70;99.90;;;;;;5065703;28;20166;-58
2023/05/06 10:17:58;;;;;;;3.15;1.80;;;19.90;99.90;;;;;;5066070;28;20023;-52
2023/05/06 10:20:25;;;;;;;3.75;1.70;;;20.20;99.90;;;;;;5068492;28;20674;-59
2023/05/06 10:23:08;;;;;;;4.40;1.67;;;20.40;99.90;;;;;;5071868;28;20119;-61
2023/05/06 10:25:44;;;;;;;4.72;1.50;;;20.50;99.90;;;;;;5074351;28;20033;-61
2023/05/06 10:28:11;;;;;;;4.82;1.65;;;20.40;99.90;;;;;;5066464;28;20551;-54
2023/05/06 10:30:38;;;;;;;4.78;1.80;;;20.60;99.90;;;;;;5069487;28;20101;-61
2023/05/06 10:33:08;;;;;;;3.90;1.60;;;20.70;99.90;;;;;;5070220;28;20052;-58
2023/05/06 10:35:40;;;;;;;1.63;1.25;;;20.80;99.90;;;;;;5070520;28;20042;-56
2023/05/06 10:38:35;;;;;;;3.83;1.08;;;21.00;99.90;;;;;;5072754;28;20032;-57
2023/05/06 10:41:02;;;;;;;4.88;1.48;;;21.40;99.90;;;;;;5069202;28;20028;-56
2023/05/06 10:43:30;;;;;;;11.25;1.55;;;21.50;99.90;;;;;;5066467;28;20035;-58
2023/05/06 10:46:07;;;;;;;3.15;1.73;;;21.50;99.90;;;;;;5062003;28;20369;-61
2023/05/06 10:48:34;;;;;;;2.40;1.05;;;21.60;99.90;;;;;;5066083;28;20040;-64
2023/05/06 10:51:15;;;;;;;6.55;1.23;;;21.20;99.90;;;;;;5071551;28;20506;-61
2023/05/06 10:54:07;;;;;;;6.70;1.02;;;21.30;99.90;;;;;;5065960;28;20033;-61
2023/05/06 10:56:38;;;;;;;4.82;1.13;;;21.20;99.90;;;;;;5068297;28;20089;-62
2023/05/06 10:59:10;;;;;;;1.35;0.93;;;21.10;99.90;;;;;;5068012;28;20016;-63
2023/05/06 11:01:39;;;;;;;4.72;1.27;;;20.80;99.90;;;;;;5068415;28;20025;-61
2023/05/06 11:04:09;;;;;;;3.25;1.25;;;20.80;99.90;;;;;;5065487;28;20128;-61
2023/05/06 11:06:40;;;;;;;3.60;1.20;;;20.90;99.90;;;;;;5070491;28;20044;-57
2023/05/06 11:09:18;;;;;;;2.47;1.30;;;20.90;99.90;;;;;;5067013;28;20028;-59
2023/05/06 11:11:49;;;;;;;2.58;1.60;;;20.50;99.90;;;;;;5067533;28;20563;-59
2023/05/06 11:14:36;;;;;;;4.07;1.00;;;20.50;99.90;;;;;;5062306;28;20028;-55
2023/05/06 11:17:07;;;;;;;3.55;1.15;;;20.50;99.90;;;;;;5064642;28;22208;-57
2023/05/06 11:19:34;;;;;;;2.50;1.17;;;20.60;99.90;;;;;;5066529;28;20234;-60
2023/05/06 11:22:02;;;;;;;3.60;1.15;;;20.70;99.90;;;;;;5070951;28;20048;-60
2023/05/06 11:24:42;;;;;;;3.05;1.25;;;20.70;99.90;;;;;;5069778;28;20544;-52
2023/05/06 11:27:09;;;;;;;6.97;1.65;;;21.00;99.90;;;;;;5067770;28;20032;-61
2023/05/06 11:29:35;;;;;;;1.17;1.00;;;21.40;99.90;;;;;;5070842;28;20036;-58
2023/05/06 11:32:20;;;;;;;4.47;1.42;;;21.70;99.90;;;;;;5066289;28;20412;-58
2023/05/06 11:34:45;;;;;;;8.80;1.85;;;22.00;99.90;;;;;;5070631;28;20035;-59
2023/05/06 11:37:11;;;;;;;2.33;1.40;;;21.80;99.90;;;;;;5070268;28;20028;-58
2023/05/06 11:39:36;;;;;;;4.80;1.27;;;22.00;99.90;;;;;;5064482;28;20052;-60
2023/05/06 11:42:04;;;;;;;2.35;1.65;;;22.10;99.90;;;;;;5062985;28;20296;-52
2023/05/06 11:44:35;;;;;;;3.22;1.42;;;22.10;99.90;;;;;;5068187;28;20024;-62
2023/05/06 11:47:07;;;;;;;2.67;1.20;;;22.30;99.90;;;;;;5067370;28;20050;-59
2023/05/06 11:49:37;;;;;;;7.07;1.38;;;22.70;99.90;;;;;;5067979;28;20128;-58
2023/05/06 11:52:03;;;;;;;5.15;1.00;;;22.90;99.90;;;;;;5069210;28;20021;-59
2023/05/06 11:54:33;;;;;;;2.05;1.00;;;22.90;99.90;;;;;;5068126;28;20017;-57
2023/05/06 11:56:59;;;;;;;3.42;1.27;;;22.60;99.90;;;;;;5068811;28;20021;-60
2023/05/06 11:59:38;;;;;;;2.80;1.13;;;22.50;99.90;;;;;;5069261;28;20648;-59
2023/05/06 12:02:06;;;;;;;3.67;1.42;;;22.30;99.90;;;;;;5065347;28;20021;-60
2023/05/06 12:04:43;;;;;;;2.17;1.10;;;22.60;99.90;;;;;;5070689;28;20020;-64
2023/05/06 12:07:11;;;;;;;2.88;1.10;;;22.50;99.90;;;;;;5067240;28;20150;-59
2023/05/06 12:09:46;;;;;;;2.75;1.25;;;22.80;99.90;;;;;;5066387;28;20484;-63
2023/05/06 12:12:15;;;;;;;2.50;1.17;;;23.30;99.90;;;;;;5068949;28;20391;-61
2023/05/06 12:14:43;;;;;;;1.70;1.00;;;23.80;99.90;;;;;;5068502;28;20027;-58
2023/05/06 12:17:09;;;;;;;4.05;1.20;;;24.00;99.90;;;;;;5068378;28;20426;-58
2023/05/06 12:19:35;;;;;;;2.08;0.70;;;23.80;99.90;;;;;;5067562;28;20096;-59
2023/05/06 12:22:33;;;;;;;3.28;1.08;;;23.50;99.90;;;;;;5064995;28;20033;-60
2023/05/06 12:25:14;;;;;;;4.82;0.90;;;23.80;99.90;;;;;;5035579;28;20033;-57
2023/05/06 12:27:40;;;;;;;1.70;0.82;;;23.80;99.90;;;;;;5068270;28;20021;-58
2023/05/06 12:30:07;;;;;;;3.40;0.70;;;22.90;99.90;;;;;;5063076;28;20545;-56
2023/05/06 12:32:33;;;;;;;1.60;0.80;;;22.90;99.90;;;;;;5067928;28;20037;-64
2023/05/06 12:35:04;;;;;;;3.22;0.98;;;22.70;99.90;;;;;;5066304;28;20032;-59